Time;durP1;ratioP1;P1;durP2;ratioP2;P2;SDS_P1;SDS_P2;PMS_P1;PMS_P2;Temp;Humidity;BMP_temperature;BMP_pressure;BME280_temperature;BME280_humidity;BME280_pressure;Samples;Min_cycle;Max_cycle;Signal;HPM_P1;HPM_P2
2021/01/12 00:00:27;;;;;;;40.97;17.48;;;-3273.70;77.20;;;;;;5051827;28;20536;-43
2021/01/12 00:02:53;;;;;;;49.83;19.52;;;-3273.80;77.10;;;;;;5052090;28;20021;-42
2021/01/12 00:05:20;;;;;;;48.97;19.35;;;-3273.70;77.20;;;;;;5052006;28;20119;-42
2021/01/12 00:07:47;;;;;;;43.88;19.92;;;-3273.70;76.90;;;;;;5050619;28;20070;-42
2021/01/12 00:10:13;;;;;;;44.50;18.63;;;-3273.70;76.80;;;;;;5050648;28;20569;-42
2021/01/12 00:12:39;;;;;;;44.30;18.65;;;-3273.80;76.80;;;;;;5062320;28;20135;-42
2021/01/12 00:15:06;;;;;;;45.75;18.38;;;-3273.80;76.90;;;;;;5066589;28;20040;-42
2021/01/12 00:17:32;;;;;;;44.78;19.73;;;-3273.90;76.80;;;;;;5063614;28;20060;-43
2021/01/12 00:19:58;;;;;;;40.25;17.50;;;-3273.80;77.00;;;;;;5051695;28;20089;-42
2021/01/12 00:22:24;;;;;;;47.60;18.50;;;-3273.90;77.50;;;;;;5051694;28;20094;-43
2021/01/12 00:24:50;;;;;;;43.60;19.25;;;-3274.00;77.40;;;;;;5051835;28;20037;-43
2021/01/12 00:27:19;;;;;;;42.90;17.90;;;-3274.10;77.20;;;;;;5051508;28;20477;-42
2021/01/12 00:29:46;;;;;;;42.55;17.45;;;-3274.20;77.00;;;;;;5051367;28;20037;-42
2021/01/12 00:32:22;;;;;;;37.65;17.20;;;-3274.30;77.00;;;;;;5051079;28;20110;-43
2021/01/12 00:34:49;;;;;;;44.33;18.75;;;-3274.40;77.00;;;;;;5068220;28;20040;-42
2021/01/12 00:37:23;;;;;;;44.38;17.92;;;-3274.50;77.00;;;;;;5071678;28;20039;-42
2021/01/12 00:39:50;;;;;;;41.80;18.77;;;-3274.60;76.70;;;;;;5070318;28;20451;-43
2021/01/12 00:42:16;;;;;;;50.55;19.65;;;-3274.60;76.70;;;;;;5052288;28;20485;-43
2021/01/12 00:44:41;;;;;;;41.45;18.65;;;-3274.70;76.70;;;;;;5051540;28;20088;-42
2021/01/12 00:47:07;;;;;;;49.17;20.30;;;-3274.70;76.70;;;;;;5050579;28;20523;-43
2021/01/12 00:49:34;;;;;;;43.08;18.88;;;-3274.80;76.60;;;;;;5054157;28;20066;-42
2021/01/12 00:51:59;;;;;;;43.15;18.70;;;-3274.90;76.60;;;;;;5055303;28;20060;-42
2021/01/12 00:54:25;;;;;;;49.15;19.73;;;-3274.90;76.60;;;;;;5053634;28;20453;-43
2021/01/12 00:56:52;;;;;;;47.15;19.83;;;-3274.80;77.00;;;;;;5055377;28;20374;-42
2021/01/12 00:59:18;;;;;;;49.45;19.50;;;-3274.90;77.10;;;;;;5055331;28;20120;-42
2021/01/12 01:01:45;;;;;;;47.40;20.45;;;-3275.00;77.10;;;;;;5055050;28;20033;-42
2021/01/12 01:04:15;;;;;;;55.15;20.95;;;-3275.00;77.00;;;;;;5054934;28;20155;-43
2021/01/12 01:06:42;;;;;;;45.70;19.52;;;-3275.10;77.00;;;;;;5054967;28;20493;-43
2021/01/12 01:09:09;;;;;;;48.53;20.90;;;-3275.10;77.00;;;;;;5054816;28;20481;-43
2021/01/12 01:11:40;;;;;;;47.60;20.05;;;-3275.10;76.90;;;;;;5054771;28;20025;-42
2021/01/12 01:14:06;;;;;;;54.83;21.58;;;-3275.10;76.90;;;;;;5053872;28;20033;-42
2021/01/12 01:16:33;;;;;;;48.75;21.92;;;-3275.20;76.80;;;;;;5054639;28;20366;-42
2021/01/12 01:18:59;;;;;;;53.00;22.23;;;-3275.30;76.60;;;;;;5054621;28;20057;-41
2021/01/12 01:21:26;;;;;;;44.00;19.63;;;-3275.20;76.60;;;;;;5055222;28;20052;-44
2021/01/12 01:23:52;;;;;;;51.38;23.15;;;-3275.20;76.70;;;;;;5074766;28;20024;-43
2021/01/12 01:26:18;;;;;;;48.55;21.15;;;-3275.40;76.60;;;;;;5074707;28;20045;-42
2021/01/12 01:28:44;;;;;;;48.17;20.60;;;-3275.50;76.30;;;;;;5074472;28;20055;-41
2021/01/12 01:31:10;;;;;;;54.78;21.65;;;-3275.50;76.10;;;;;;5074947;28;20037;-42
2021/01/12 01:33:37;;;;;;;51.60;22.45;;;-3275.50;75.90;;;;;;5072902;28;20028;-43
2021/01/12 01:36:03;;;;;;;47.03;20.58;;;-3275.60;75.80;;;;;;5073199;28;20041;-43
2021/01/12 01:38:30;;;;;;;51.08;22.10;;;-3275.60;75.60;;;;;;5073560;28;20506;-43
2021/01/12 01:40:59;;;;;;;44.75;20.05;;;-3275.70;75.50;;;;;;5066060;28;20033;-42
2021/01/12 01:43:25;;;;;;;48.85;21.27;;;-3275.70;75.60;;;;;;5054403;28;20028;-42
2021/01/12 01:45:51;;;;;;;44.80;20.80;;;-3275.70;75.40;;;;;;5054217;28;20421;-43
2021/01/12 01:48:18;;;;;;;48.72;21.40;;;-3275.80;75.30;;;;;;5054304;28;20040;-42
2021/01/12 01:50:45;;;;;;;51.17;22.23;;;-3275.70;75.20;;;;;;5053926;28;20074;-44
2021/01/12 01:53:11;;;;;;;48.38;20.65;;;-3275.70;75.10;;;;;;5054386;28;20452;-41
2021/01/12 01:55:38;;;;;;;47.35;20.88;;;-3275.70;75.40;;;;;;5053239;28;20056;-42
2021/01/12 01:58:05;;;;;;;49.63;22.35;;;-3275.70;75.40;;;;;;5054180;28;20110;-44
2021/01/12 02:00:32;;;;;;;45.88;21.67;;;-3275.80;75.50;;;;;;5052050;28;20035;-42
2021/01/12 02:03:22;;;;;;;51.20;22.05;;;-3275.80;75.20;;;;;;5054010;28;20033;-43
2021/01/12 02:06:14;;;;;;;50.05;20.90;;;-3275.90;75.00;;;;;;5053385;28;20029;-43
2021/01/12 02:08:55;;;;;;;46.10;22.20;;;-3275.70;75.00;;;;;;5053497;28;20033;-45
2021/01/12 02:11:24;;;;;;;54.20;21.58;;;-3275.80;75.40;;;;;;5053880;28;20036;-43
2021/01/12 02:14:03;;;;;;;47.80;20.67;;;-3275.90;75.40;;;;;;5054018;28;20028;-43
2021/01/12 02:16:30;;;;;;;46.70;19.85;;;-3275.90;75.40;;;;;;5053634;28;20060;-42
2021/01/12 02:18:57;;;;;;;52.63;21.92;;;-3275.90;75.40;;;;;;5052181;28;20069;-42
2021/01/12 02:21:25;;;;;;;51.75;22.90;;;-3276.00;75.30;;;;;;5053688;28;20115;-42
2021/01/12 02:23:56;;;;;;;48.83;21.08;;;-3276.10;75.30;;;;;;5053193;28;20037;-42
2021/01/12 02:26:23;;;;;;;49.60;20.92;;;-3276.10;75.10;;;;;;5053197;28;20044;-43
2021/01/12 02:28:49;;;;;;;47.50;20.60;;;-3276.20;74.80;;;;;;5072281;28;20536;-43
2021/01/12 02:31:18;;;;;;;51.45;23.23;;;-3276.20;74.80;;;;;;5057425;28;20186;-42
2021/01/12 02:33:49;;;;;;;50.70;21.42;;;-3276.20;74.50;;;;;;5059419;28;20071;-43
2021/01/12 02:36:21;;;;;;;46.85;20.95;;;-3276.30;74.40;;;;;;5073750;28;20433;-42
2021/01/12 02:38:47;;;;;;;53.05;21.35;;;-3276.20;74.40;;;;;;5070731;28;20040;-44
2021/01/12 02:41:15;;;;;;;52.65;21.02;;;-3276.30;74.50;;;;;;5060660;28;20036;-42
2021/01/12 02:43:42;;;;;;;53.22;23.50;;;-3276.20;74.30;;;;;;5052929;28;20485;-42
2021/01/12 02:46:13;;;;;;;56.92;22.30;;;-3276.10;74.30;;;;;;5052787;28;20108;-42
2021/01/12 02:48:39;;;;;;;52.45;22.17;;;-3276.10;74.50;;;;;;5053493;28;20040;-42
2021/01/12 02:51:08;;;;;;;49.72;20.08;;;-3276.10;74.40;;;;;;5053206;28;20404;-43
2021/01/12 02:53:34;;;;;;;54.13;22.60;;;-3276.10;74.60;;;;;;5052383;28;20035;-44
2021/01/12 02:55:59;;;;;;;48.65;20.23;;;-3276.20;74.80;;;;;;5052994;28;20029;-42
2021/01/12 02:58:25;;;;;;;48.38;20.23;;;-3276.10;74.20;;;;;;5052939;28;20496;-42
2021/01/12 03:00:51;;;;;;;54.08;23.73;;;-3276.10;74.10;;;;;;5052710;28;20029;-42
2021/01/12 03:03:17;;;;;;;47.05;20.65;;;-3276.10;74.00;;;;;;5052911;28;20083;-46
2021/01/12 03:05:43;;;;;;;51.28;21.42;;;-3276.00;74.30;;;;;;5052722;28;20424;-43
2021/01/12 03:08:09;;;;;;;46.55;21.67;;;-3276.00;74.70;;;;;;5052532;28;20044;-42
2021/01/12 03:10:35;;;;;;;48.78;22.80;;;-3276.00;74.70;;;;;;5052521;28;20039;-42
2021/01/12 03:13:01;;;;;;;51.00;22.90;;;-3276.00;74.70;;;;;;5051652;28;20033;-42
2021/01/12 03:15:27;;;;;;;49.72;21.63;;;-3275.90;74.70;;;;;;5051460;28;20037;-42
2021/01/12 03:17:53;;;;;;;50.17;24.45;;;-3275.90;75.00;;;;;;5052598;28;20033;-44
2021/01/12 03:20:19;;;;;;;50.58;22.73;;;-3275.90;75.30;;;;;;5052827;28;20516;-44
2021/01/12 03:22:45;;;;;;;49.95;21.70;;;-3275.90;75.40;;;;;;5070690;28;20043;-42
2021/01/12 03:25:11;;;;;;;48.80;21.85;;;-3275.80;75.20;;;;;;5054691;28;20025;-42
2021/01/12 03:27:37;;;;;;;49.10;20.27;;;-3275.90;75.30;;;;;;5072339;28;20507;-43
2021/01/12 03:30:06;;;;;;;56.40;22.48;;;-3275.90;75.10;;;;;;5072578;28;20063;-43
2021/01/12 03:32:32;;;;;;;55.30;22.80;;;-3275.90;75.20;;;;;;5071853;28;20119;-44
2021/01/12 03:34:57;;;;;;;57.28;22.58;;;-3275.90;75.10;;;;;;5072243;28;20111;-42
2021/01/12 03:37:23;;;;;;;51.85;23.13;;;-3276.00;74.70;;;;;;5071621;28;20409;-42
2021/01/12 03:39:49;;;;;;;50.63;21.33;;;-3276.00;74.50;;;;;;5071655;28;20495;-42
2021/01/12 03:42:15;;;;;;;52.10;21.75;;;-3276.00;74.10;;;;;;5069257;28;20175;-42
2021/01/12 03:44:42;;;;;;;53.72;21.92;;;-3275.90;74.20;;;;;;5051640;28;20111;-42
2021/01/12 03:47:10;;;;;;;54.97;23.10;;;-3275.90;74.10;;;;;;5052143;28;20117;-42
2021/01/12 03:49:36;;;;;;;47.92;22.85;;;-3275.90;74.30;;;;;;5052029;28;20474;-43
2021/01/12 03:52:02;;;;;;;54.40;23.52;;;-3275.90;74.20;;;;;;5051949;28;20031;-45
2021/01/12 03:54:27;;;;;;;48.85;21.52;;;-3275.90;74.00;;;;;;5053611;28;20113;-43
2021/01/12 03:56:53;;;;;;;50.78;20.92;;;-3275.90;74.10;;;;;;5072241;28;20060;-43
2021/01/12 03:59:19;;;;;;;56.25;23.00;;;-3276.00;73.90;;;;;;5072007;28;20484;-42
2021/01/12 04:01:44;;;;;;;48.75;21.88;;;-3276.00;73.70;;;;;;5070779;28;20556;-42
2021/01/12 04:04:11;;;;;;;51.95;22.05;;;-3276.00;73.30;;;;;;5072279;28;20028;-41
2021/01/12 04:06:36;;;;;;;49.92;20.88;;;-3276.00;73.30;;;;;;5051969;28;20077;-42
2021/01/12 04:09:04;;;;;;;52.17;21.73;;;-3276.00;72.80;;;;;;5052161;28;20064;-42
2021/01/12 04:11:34;;;;;;;49.70;21.75;;;-3275.90;72.80;;;;;;5052748;28;20029;-43
2021/01/12 04:14:03;;;;;;;48.13;21.35;;;-3275.90;72.80;;;;;;5051075;28;20037;-42
2021/01/12 04:16:29;;;;;;;52.08;21.13;;;-3275.80;72.90;;;;;;5054254;28;20029;-42
2021/01/12 04:18:55;;;;;;;55.65;22.13;;;-3275.60;73.30;;;;;;5070162;28;20087;-43
2021/01/12 04:21:21;;;;;;;45.80;20.13;;;-3275.60;73.60;;;;;;5071909;28;20469;-42
2021/01/12 04:23:47;;;;;;;45.03;19.00;;;-3275.60;73.60;;;;;;5071397;28;20442;-43
2021/01/12 04:26:13;;;;;;;52.85;19.90;;;-3275.60;73.80;;;;;;5076091;28;20436;-42
2021/01/12 04:28:38;;;;;;;47.85;19.75;;;-3275.60;73.70;;;;;;5075319;28;20032;-42
2021/01/12 04:31:04;;;;;;;50.13;20.55;;;-3275.50;73.90;;;;;;5075876;28;20028;-42
2021/01/12 04:33:30;;;;;;;51.33;22.15;;;-3275.60;74.20;;;;;;5075785;28;20028;-43
2021/01/12 04:35:55;;;;;;;47.72;20.27;;;-3275.60;74.20;;;;;;5075322;28;20107;-43
2021/01/12 04:38:22;;;;;;;51.25;21.55;;;-3275.60;74.20;;;;;;5075600;28;20039;-42
2021/01/12 04:40:48;;;;;;;50.30;21.60;;;-3275.70;74.30;;;;;;5071981;28;20063;-42
2021/01/12 04:43:13;;;;;;;55.22;22.13;;;-3275.60;74.20;;;;;;5057771;28;20029;-42
2021/01/12 04:45:39;;;;;;;51.80;21.83;;;-3275.60;74.40;;;;;;5074360;28;20054;-42
2021/01/12 04:48:06;;;;;;;44.13;19.95;;;-3275.70;74.20;;;;;;5074081;28;20051;-42
2021/01/12 04:50:32;;;;;;;47.47;21.13;;;-3275.80;74.10;;;;;;5072380;28;20169;-42
2021/01/12 04:52:58;;;;;;;48.90;19.92;;;-3275.90;74.00;;;;;;5055129;28;20041;-42
2021/01/12 04:55:24;;;;;;;46.25;21.23;;;-3275.80;74.00;;;;;;5055197;28;20397;-42
2021/01/12 04:57:50;;;;;;;48.35;20.45;;;-3275.80;74.00;;;;;;5055335;28;20378;-42
2021/01/12 05:00:23;;;;;;;49.28;20.67;;;-3275.70;74.10;;;;;;5055189;28;20025;-43
2021/01/12 05:03:03;;;;;;;47.55;20.48;;;-3275.80;74.20;;;;;;5055396;28;20095;-45
2021/01/12 05:05:30;;;;;;;49.95;21.33;;;-3275.80;74.10;;;;;;5055115;28;20039;-43
2021/01/12 05:08:06;;;;;;;49.00;21.20;;;-3275.90;74.00;;;;;;5062940;28;20076;-42
2021/01/12 05:10:37;;;;;;;48.70;20.50;;;-3275.90;73.80;;;;;;5061265;28;20029;-42
2021/01/12 05:13:08;;;;;;;52.30;21.60;;;-3275.90;73.70;;;;;;5074811;28;20074;-42
2021/01/12 05:15:36;;;;;;;49.10;21.35;;;-3276.00;73.60;;;;;;5065303;28;20424;-44
2021/01/12 05:18:05;;;;;;;49.75;22.02;;;-3276.00;73.60;;;;;;5062379;28;20028;-43
2021/01/12 05:20:44;;;;;;;46.58;20.63;;;-3275.90;73.70;;;;;;5064780;28;20389;-43
2021/01/12 05:23:11;;;;;;;49.88;20.23;;;-3275.90;73.80;;;;;;5054932;28;20033;-45
2021/01/12 05:25:39;;;;;;;53.55;21.30;;;-3275.80;73.90;;;;;;5054584;28;20036;-44
2021/01/12 05:28:10;;;;;;;53.92;21.90;;;-3275.90;74.30;;;;;;5066412;28;20143;-44
2021/01/12 05:30:37;;;;;;;50.75;20.63;;;-3275.80;74.20;;;;;;5074373;28;20091;-42
2021/01/12 05:33:04;;;;;;;50.47;20.20;;;-3275.90;74.20;;;;;;5057490;28;20037;-42
2021/01/12 05:35:30;;;;;;;49.90;21.75;;;-3275.90;74.10;;;;;;5051545;28;20090;-43
2021/01/12 05:38:05;;;;;;;51.70;22.35;;;-3275.90;74.00;;;;;;5062491;28;20119;-43
2021/01/12 05:40:33;;;;;;;48.53;21.88;;;-3275.80;73.80;;;;;;5066704;28;20024;-42
2021/01/12 05:43:12;;;;;;;52.13;21.35;;;-3275.90;73.90;;;;;;5071351;28;20071;-43
2021/01/12 05:45:43;;;;;;;50.55;20.88;;;-3275.90;73.80;;;;;;5052831;28;20396;-47
2021/01/12 05:48:09;;;;;;;57.47;24.05;;;-3275.90;73.80;;;;;;5054269;28;20413;-43
2021/01/12 05:50:37;;;;;;;50.58;20.15;;;-3275.90;74.00;;;;;;5061299;28;20032;-42
2021/01/12 05:53:13;;;;;;;47.22;21.30;;;-3275.90;74.20;;;;;;5063444;28;20132;-42
2021/01/12 05:55:40;;;;;;;47.67;20.08;;;-3275.90;74.20;;;;;;5053985;28;20179;-45
2021/01/12 05:58:19;;;;;;;47.67;21.48;;;-3275.80;74.30;;;;;;5053759;28;20489;-43
2021/01/12 06:00:47;;;;;;;47.13;20.42;;;-3275.90;74.60;;;;;;5058901;28;20044;-43
2021/01/12 06:03:17;;;;;;;48.58;21.17;;;-3275.90;74.60;;;;;;5067539;28;20029;-42
2021/01/12 06:05:48;;;;;;;59.90;23.77;;;-3275.90;74.60;;;;;;5053594;28;20109;-45
2021/01/12 06:08:15;;;;;;;47.47;20.10;;;-3276.00;74.50;;;;;;5053824;28;20448;-42
2021/01/12 06:10:44;;;;;;;56.00;24.42;;;-3276.10;74.50;;;;;;5057603;28;20044;-43
2021/01/12 06:13:18;;;;;;;44.38;19.40;;;-3276.00;74.40;;;;;;5053507;28;20106;-43
2021/01/12 06:15:48;;;;;;;53.72;22.17;;;-3276.10;74.90;;;;;;5053285;28;20037;-42
2021/01/12 06:18:15;;;;;;;49.53;22.17;;;-3276.10;75.10;;;;;;5053517;28;20102;-42
2021/01/12 06:21:11;;;;;;;44.22;21.10;;;-3276.20;75.10;;;;;;5051623;28;20025;-43
2021/01/12 06:23:44;;;;;;;46.72;20.50;;;-3276.20;74.60;;;;;;5053089;28;20033;-43
2021/01/12 06:26:12;;;;;;;47.50;20.48;;;-3276.20;74.90;;;;;;5053347;28;20035;-42
2021/01/12 06:28:41;;;;;;;54.03;21.35;;;-3276.10;74.90;;;;;;5065306;28;20110;-42
2021/01/12 06:31:09;;;;;;;56.72;21.60;;;-3276.20;74.90;;;;;;5071409;28;20070;-42
2021/01/12 06:33:35;;;;;;;49.53;21.02;;;-3276.10;75.00;;;;;;5066002;28;20037;-43
2021/01/12 06:36:02;;;;;;;51.70;22.02;;;-3276.20;75.20;;;;;;5063573;28;20127;-43
2021/01/12 06:38:29;;;;;;;49.58;21.35;;;-3276.30;75.30;;;;;;5066372;28;20499;-42
2021/01/12 06:40:58;;;;;;;48.13;20.25;;;-3276.30;75.10;;;;;;5063568;28;20107;-45
2021/01/12 06:43:25;;;;;;;58.25;23.08;;;-3276.30;75.10;;;;;;5070961;28;20400;-45
2021/01/12 06:45:56;;;;;;;53.60;21.80;;;-3276.30;75.20;;;;;;5064094;28;20666;-43
2021/01/12 06:48:22;;;;;;;50.20;22.25;;;-3276.30;75.50;;;;;;5052799;28;20071;-44
2021/01/12 06:50:48;;;;;;;49.88;21.13;;;-3276.30;75.60;;;;;;5053595;28;20078;-44
2021/01/12 06:53:17;;;;;;;50.88;21.10;;;-3276.40;75.60;;;;;;5052692;28;20388;-43
2021/01/12 06:55:42;;;;;;;52.42;22.13;;;-3276.40;75.70;;;;;;5052733;28;20071;-45
2021/01/12 06:58:11;;;;;;;48.88;21.48;;;-3276.40;75.50;;;;;;5052072;28;20057;-43
2021/01/12 07:00:37;;;;;;;51.33;22.73;;;-3276.50;75.60;;;;;;5053814;28;20067;-44
2021/01/12 07:03:05;;;;;;;50.97;22.08;;;-3276.50;75.60;;;;;;5056041;28;20049;-45
2021/01/12 07:05:39;;;;;;;48.97;22.27;;;-3276.50;75.70;;;;;;5052224;28;20075;-43
2021/01/12 07:08:08;;;;;;;48.75;20.50;;;-3276.50;75.70;;;;;;5052369;28;20080;-43
2021/01/12 07:10:44;;;;;;;52.58;21.85;;;-3276.40;75.80;;;;;;5052248;28;20503;-43
2021/01/12 07:13:11;;;;;;;54.03;22.25;;;-3276.40;75.80;;;;;;5055920;28;20178;-43
2021/01/12 07:15:48;;;;;;;49.15;21.15;;;-3276.40;75.40;;;;;;5067032;28;20514;-43
2021/01/12 07:18:20;;;;;;;48.92;21.08;;;-3276.50;75.00;;;;;;5069347;28;20480;-42
2021/01/12 07:20:46;;;;;;;51.60;22.73;;;-3276.50;75.00;;;;;;5051817;28;20053;-43
2021/01/12 07:23:13;;;;;;;52.13;21.10;;;-3276.50;74.80;;;;;;5059198;28;20385;-43
2021/01/12 07:25:41;;;;;;;51.97;20.33;;;-3276.60;74.80;;;;;;5056028;28;20041;-43
2021/01/12 07:28:13;;;;;;;49.90;21.05;;;-3276.60;74.80;;;;;;5052854;28;20040;-42
2021/01/12 07:30:40;;;;;;;47.60;20.10;;;-3276.60;74.90;;;;;;5061636;28;20039;-42
2021/01/12 07:33:16;;;;;;;45.25;19.42;;;-3276.60;74.70;;;;;;5061797;28;20029;-43
2021/01/12 07:35:43;;;;;;;52.50;22.08;;;-3276.60;74.70;;;;;;5063522;28;20047;-43
2021/01/12 07:38:08;;;;;;;50.58;19.75;;;-3276.60;74.80;;;;;;5050801;28;20036;-44
2021/01/12 07:40:34;;;;;;;48.70;20.25;;;-3276.70;74.80;;;;;;5055667;28;20473;-45
2021/01/12 07:43:02;;;;;;;48.53;19.85;;;0.00;74.70;;;;;;5054536;28;20036;-41
2021/01/12 07:45:31;;;;;;;47.30;20.85;;;0.00;74.70;;;;;;5055500;28;20037;-42
2021/01/12 07:47:59;;;;;;;49.72;20.92;;;0.00;74.80;;;;;;5051452;28;20048;-43
2021/01/12 07:50:27;;;;;;;44.40;20.08;;;0.00;74.00;;;;;;5052011;28;20037;-42
2021/01/12 07:52:55;;;;;;;50.20;19.77;;;0.00;73.80;;;;;;5066836;28;20025;-42
2021/01/12 07:55:20;;;;;;;44.42;18.48;;;0.00;74.20;;;;;;5050390;28;20366;-43
2021/01/12 07:57:50;;;;;;;41.33;19.25;;;0.00;74.40;;;;;;5051700;28;20033;-42
2021/01/12 08:00:18;;;;;;;45.50;19.95;;;0.00;74.30;;;;;;5055551;28;20396;-45
2021/01/12 08:02:49;;;;;;;52.78;19.92;;;0.00;74.40;;;;;;5038610;28;20029;-45
2021/01/12 08:05:24;;;;;;;46.75;19.65;;;0.00;74.60;;;;;;5056334;28;20037;-44
2021/01/12 08:08:02;;;;;;;44.35;19.10;;;0.10;74.60;;;;;;5054942;28;20075;-45
2021/01/12 08:10:30;;;;;;;51.10;18.73;;;0.10;74.60;;;;;;5056591;28;20071;-44
2021/01/12 08:13:06;;;;;;;44.13;18.73;;;0.20;74.70;;;;;;5055601;28;20546;-47
2021/01/12 08:15:34;;;;;;;46.80;18.95;;;0.20;74.70;;;;;;5055886;28;20079;-43
2021/01/12 08:18:00;;;;;;;45.92;19.30;;;0.20;74.70;;;;;;5055919;28;20123;-46
2021/01/12 08:20:26;;;;;;;46.28;20.15;;;0.30;74.80;;;;;;5055606;28;20161;-45
2021/01/12 08:22:56;;;;;;;48.13;20.20;;;0.20;74.90;;;;;;5055495;28;20035;-42
2021/01/12 08:25:23;;;;;;;43.97;19.08;;;0.20;75.00;;;;;;5055898;28;20116;-45
2021/01/12 08:27:53;;;;;;;47.05;19.85;;;0.30;74.80;;;;;;5067445;28;20493;-46
2021/01/12 08:30:21;;;;;;;47.78;19.42;;;0.30;74.80;;;;;;5075671;28;20032;-43
2021/01/12 08:33:01;;;;;;;48.17;20.42;;;0.30;74.80;;;;;;5074629;28;20380;-44
2021/01/12 08:35:30;;;;;;;46.20;19.27;;;0.30;74.90;;;;;;5075911;28;20101;-44
2021/01/12 08:37:59;;;;;;;43.13;18.75;;;0.30;75.00;;;;;;5075496;28;20035;-43
2021/01/12 08:40:31;;;;;;;47.42;19.10;;;0.30;75.10;;;;;;5074330;28;20039;-44
2021/01/12 08:43:01;;;;;;;46.80;19.73;;;0.30;75.20;;;;;;5075514;28;20511;-44
2021/01/12 08:45:32;;;;;;;48.38;19.88;;;0.30;74.80;;;;;;5074233;28;20115;-44
2021/01/12 08:48:13;;;;;;;49.03;20.70;;;0.30;74.70;;;;;;5075149;28;20064;-47
2021/01/12 08:50:39;;;;;;;48.28;18.63;;;0.20;74.70;;;;;;5072872;28;20481;-46
2021/01/12 08:53:05;;;;;;;46.13;19.60;;;0.30;74.10;;;;;;5055264;28;20493;-44
2021/01/12 08:55:31;;;;;;;44.63;18.30;;;0.30;73.60;;;;;;5055298;28;20029;-44
2021/01/12 08:58:02;;;;;;;45.80;18.77;;;0.30;73.20;;;;;;5055043;28;20131;-43
2021/01/12 09:00:32;;;;;;;45.33;18.65;;;0.30;72.50;;;;;;5055688;28;20120;-45
2021/01/12 09:02:59;;;;;;;44.22;18.27;;;0.30;72.40;;;;;;5054961;28;20047;-45
2021/01/12 09:05:26;;;;;;;44.38;19.05;;;0.30;72.20;;;;;;5054890;28;20029;-45
2021/01/12 09:08:08;;;;;;;43.85;18.83;;;0.40;72.40;;;;;;5054712;28;20044;-45
2021/01/12 09:10:37;;;;;;;45.83;19.25;;;0.40;72.30;;;;;;5053959;28;20041;-45
2021/01/12 09:13:03;;;;;;;45.33;19.33;;;0.50;72.30;;;;;;5054927;28;20029;-46
2021/01/12 09:15:30;;;;;;;43.25;18.60;;;0.50;72.20;;;;;;5054899;28;20496;-45
2021/01/12 09:18:09;;;;;;;44.22;18.67;;;0.50;72.30;;;;;;5054763;28;20511;-43
2021/01/12 09:20:37;;;;;;;40.47;17.63;;;0.50;72.50;;;;;;5054483;28;20056;-43
2021/01/12 09:23:08;;;;;;;45.88;18.02;;;0.60;72.70;;;;;;5054578;28;20052;-45
2021/01/12 09:25:35;;;;;;;40.65;16.50;;;0.60;72.50;;;;;;5055056;28;20040;-45
2021/01/12 09:28:11;;;;;;;42.30;18.17;;;0.70;72.50;;;;;;5053235;28;20490;-46
2021/01/12 09:30:37;;;;;;;37.75;16.52;;;0.70;72.30;;;;;;5054426;28;20040;-44
2021/01/12 09:33:04;;;;;;;35.42;16.92;;;0.70;72.10;;;;;;5054252;28;20044;-44
2021/01/12 09:35:29;;;;;;;42.13;17.58;;;0.80;71.80;;;;;;5054632;28;20060;-43
2021/01/12 09:37:59;;;;;;;38.70;16.13;;;0.80;71.60;;;;;;5054428;28;20092;-44
2021/01/12 09:40:25;;;;;;;38.60;16.60;;;0.80;71.60;;;;;;5058870;28;20032;-44
2021/01/12 09:42:52;;;;;;;44.70;17.00;;;0.70;72.00;;;;;;5059062;28;20029;-45
2021/01/12 09:45:18;;;;;;;38.38;17.40;;;0.80;71.90;;;;;;5070876;28;20047;-45
2021/01/12 09:47:45;;;;;;;38.20;16.63;;;0.90;71.80;;;;;;5056816;28;20052;-46
2021/01/12 09:50:12;;;;;;;41.08;16.88;;;0.80;71.60;;;;;;5053931;28;20029;-47
2021/01/12 09:52:38;;;;;;;38.05;15.20;;;0.90;71.50;;;;;;5060910;28;20044;-46
2021/01/12 09:55:04;;;;;;;35.58;14.52;;;1.00;71.40;;;;;;5053898;28;20394;-46
2021/01/12 09:57:30;;;;;;;34.88;13.90;;;1.00;71.30;;;;;;5052627;28;20063;-44
2021/01/12 09:59:56;;;;;;;36.53;16.23;;;1.00;71.50;;;;;;5052174;28;20048;-44
2021/01/12 10:02:22;;;;;;;36.80;14.95;;;1.00;71.70;;;;;;5053994;28;20033;-44
2021/01/12 10:04:48;;;;;;;33.33;14.30;;;1.10;71.60;;;;;;5054074;28;20025;-43
2021/01/12 10:07:14;;;;;;;34.35;14.35;;;1.20;71.80;;;;;;5053387;28;20049;-47
2021/01/12 10:09:39;;;;;;;42.67;14.95;;;1.20;71.70;;;;;;5054483;28;20033;-44
2021/01/12 10:12:05;;;;;;;36.00;14.82;;;1.20;71.80;;;;;;5053880;28;20079;-44
2021/01/12 10:14:31;;;;;;;34.38;14.60;;;1.30;71.80;;;;;;5071859;28;20475;-46
2021/01/12 10:16:57;;;;;;;33.80;13.65;;;1.30;71.90;;;;;;5073453;28;20111;-45
2021/01/12 10:19:23;;;;;;;35.38;14.75;;;1.40;71.90;;;;;;5072738;28;20080;-43
2021/01/12 10:21:49;;;;;;;34.65;14.27;;;1.50;71.50;;;;;;5073187;28;20044;-43
2021/01/12 10:24:15;;;;;;;34.70;14.50;;;1.60;71.60;;;;;;5073433;28;20028;-45
2021/01/12 10:26:41;;;;;;;32.90;14.52;;;1.70;71.40;;;;;;5072562;28;20050;-46
2021/01/12 10:29:07;;;;;;;30.98;13.60;;;1.70;71.40;;;;;;5073298;28;20112;-45
2021/01/12 10:31:33;;;;;;;36.10;15.57;;;1.70;71.30;;;;;;5073334;28;20111;-47
2021/01/12 10:33:59;;;;;;;36.38;13.68;;;1.80;71.10;;;;;;5073333;28;20039;-47
2021/01/12 10:36:24;;;;;;;30.13;13.95;;;1.90;70.60;;;;;;5073460;28;20048;-48
2021/01/12 10:38:50;;;;;;;33.08;13.23;;;1.80;70.20;;;;;;5073466;28;20029;-44
2021/01/12 10:41:16;;;;;;;35.33;13.65;;;1.90;69.90;;;;;;5070418;28;20054;-46
2021/01/12 10:43:42;;;;;;;33.40;14.23;;;1.80;69.10;;;;;;5058820;28;20055;-43
2021/01/12 10:46:09;;;;;;;31.05;14.35;;;1.80;68.90;;;;;;5073102;28;20032;-44
2021/01/12 10:48:35;;;;;;;33.30;13.95;;;1.90;68.80;;;;;;5071984;28;20036;-44
2021/01/12 10:51:01;;;;;;;34.13;13.60;;;1.90;68.60;;;;;;5067325;28;20029;-44
2021/01/12 10:53:27;;;;;;;33.42;14.13;;;2.00;68.50;;;;;;5053116;28;20078;-45
2021/01/12 10:55:52;;;;;;;34.35;13.68;;;2.00;68.40;;;;;;5052941;28;20033;-45
2021/01/12 10:58:18;;;;;;;31.55;13.02;;;2.10;68.70;;;;;;5051453;28;20024;-44
2021/01/12 11:00:46;;;;;;;32.33;14.65;;;2.10;68.60;;;;;;5053250;28;20041;-43
2021/01/12 11:03:13;;;;;;;30.25;12.55;;;2.20;68.20;;;;;;5052810;28;20054;-44
2021/01/12 11:05:39;;;;;;;29.02;12.55;;;2.20;68.00;;;;;;5052820;28;20039;-44
2021/01/12 11:08:05;;;;;;;30.45;12.02;;;2.20;67.60;;;;;;5051103;28;20507;-45
2021/01/12 11:10:31;;;;;;;25.92;11.73;;;2.30;67.90;;;;;;5052626;28;20067;-47
2021/01/12 11:13:01;;;;;;;29.83;11.90;;;2.20;68.00;;;;;;5057545;28;20055;-47
2021/01/12 11:15:27;;;;;;;30.27;12.52;;;2.30;68.20;;;;;;5072587;28;20036;-45
2021/01/12 11:17:53;;;;;;;31.27;12.32;;;2.30;68.40;;;;;;5058194;28;20039;-46
2021/01/12 11:20:19;;;;;;;34.33;12.38;;;2.40;68.70;;;;;;5052049;28;20059;-44
2021/01/12 11:22:47;;;;;;;29.23;11.07;;;2.40;69.10;;;;;;5052534;28;20115;-45
2021/01/12 11:25:14;;;;;;;29.17;12.07;;;2.40;69.70;;;;;;5052149;28;20056;-45
2021/01/12 11:27:40;;;;;;;28.63;12.05;;;2.40;70.00;;;;;;5061938;28;20048;-42
2021/01/12 11:30:07;;;;;;;26.83;11.50;;;2.40;70.20;;;;;;5071886;28;20033;-42
2021/01/12 11:32:33;;;;;;;31.10;11.52;;;2.40;70.10;;;;;;5072414;28;20115;-43
2021/01/12 11:34:59;;;;;;;28.02;11.57;;;2.40;69.80;;;;;;5057173;28;20033;-46
2021/01/12 11:37:26;;;;;;;28.75;10.60;;;2.40;69.90;;;;;;5052397;28;20068;-45
2021/01/12 11:39:52;;;;;;;28.75;11.00;;;2.50;70.10;;;;;;5050975;28;20517;-44
2021/01/12 11:42:18;;;;;;;28.15;10.75;;;2.40;70.60;;;;;;5034205;28;20075;-43
2021/01/12 11:44:44;;;;;;;28.27;10.82;;;2.50;70.80;;;;;;5065670;28;20063;-43
2021/01/12 11:47:10;;;;;;;26.08;10.80;;;2.40;71.40;;;;;;5072077;28;20047;-44
2021/01/12 11:49:36;;;;;;;26.73;11.02;;;2.50;72.00;;;;;;5072135;28;20496;-44
2021/01/12 11:52:07;;;;;;;25.38;9.82;;;2.60;72.10;;;;;;5056823;28;20071;-42
2021/01/12 11:54:34;;;;;;;26.80;11.15;;;2.60;72.40;;;;;;5050857;28;20053;-45
2021/01/12 11:57:00;;;;;;;23.75;9.95;;;2.60;72.60;;;;;;5051608;28;20508;-45
2021/01/12 11:59:27;;;;;;;26.17;11.85;;;2.50;73.20;;;;;;5051850;28;20071;-46
2021/01/12 12:01:56;;;;;;;24.85;9.70;;;2.60;72.80;;;;;;5052184;28;20033;-44
2021/01/12 12:04:23;;;;;;;27.50;10.73;;;2.70;72.60;;;;;;5052072;28;20456;-45
2021/01/12 12:06:51;;;;;;;26.25;10.90;;;2.70;72.70;;;;;;5051716;28;20062;-43
2021/01/12 12:09:17;;;;;;;27.52;11.18;;;2.70;72.70;;;;;;5052302;28;20370;-45
2021/01/12 12:11:43;;;;;;;26.38;10.60;;;2.70;73.20;;;;;;5062635;28;20384;-44
2021/01/12 12:14:10;;;;;;;26.10;12.00;;;2.60;74.10;;;;;;5051456;28;20119;-45
2021/01/12 12:16:37;;;;;;;27.42;11.18;;;2.60;74.70;;;;;;5051463;28;20473;-46